KSFZ/SFZ METAR and TAF weather

Enter ICAO airport designator
Station Type Date Time Source
KSFZ METAR 2019/06/19 00:56 UTC NOAA

KSFZ 190056Z AUTO 00000KT 2 1/2SM BR OVC004 18/17 A2991 RMK AO2 VIS 1V5 RAE2358 CIG 002V007 SLP072 P0000 T01780172


Station Type Date Time Source
KSFZ Decoded METAR 2019/06/19 00:56 UTC NOAA

Pawtucket, North Central State Airport, RI, United States (KSFZ) 41-55N 071-30W
Jun 18, 2019 - 08:56 PM EDT / 2019.06.19 0056 UTC
Wind: Calm:0
Visibility: 2 1/2 mile(s):0
Sky conditions: overcast
Weather: mist
Precipitation last hour: A trace
Temperature: 64.0 F (17.8 C)
Dew Point: 63.0 F (17.2 C)
Relative Humidity: 96%
Pressure (altimeter): 29.91 in. Hg (1012 hPa)
ob: KSFZ 190056Z AUTO 00000KT 2 1/2SM BR OVC004 18/17 A2991 RMK AO2 VIS 1V5 RAE2358 CIG 002V007 SLP072 P0000 T01780172
cycle: 1

Station Type Date Time Source
KSFZ TAF UTC NOAA

Error!

Example: see airport list